sensor_id;sensor_type;location;lat;lon;timestamp;P1;durP1;ratioP1;P2;durP2;ratioP2
59418;SDS011;45224;50.904;6.038;2023-06-10T00:00:24;18.70;;;11.63;;
59418;SDS011;45224;50.904;6.038;2023-06-10T00:01:54;14.55;;;11.02;;
59418;SDS011;45224;50.904;6.038;2023-06-10T00:03:29;20.05;;;11.95;;
59418;SDS011;45224;50.904;6.038;2023-06-10T00:05:00;20.75;;;12.43;;
59418;SDS011;45224;50.904;6.038;2023-06-10T00:06:30;18.80;;;11.77;;
59418;SDS011;45224;50.904;6.038;2023-06-10T00:08:05;16.45;;;11.15;;
59418;SDS011;45224;50.904;6.038;2023-06-10T00:09:40;17.77;;;11.85;;
59418;SDS011;45224;50.904;6.038;2023-06-10T00:11:11;17.13;;;11.10;;
59418;SDS011;45224;50.904;6.038;2023-06-10T00:12:41;17.55;;;11.18;;
59418;SDS011;45224;50.904;6.038;2023-06-10T00:14:13;14.98;;;11.27;;
59418;SDS011;45224;50.904;6.038;2023-06-10T00:15:44;15.30;;;11.15;;
59418;SDS011;45224;50.904;6.038;2023-06-10T00:17:15;19.88;;;11.82;;
59418;SDS011;45224;50.904;6.038;2023-06-10T00:18:45;22.45;;;12.30;;
59418;SDS011;45224;50.904;6.038;2023-06-10T00:21:47;16.50;;;11.10;;
59418;SDS011;45224;50.904;6.038;2023-06-10T00:23:17;19.13;;;11.05;;
59418;SDS011;45224;50.904;6.038;2023-06-10T00:24:48;16.40;;;11.50;;
59418;SDS011;45224;50.904;6.038;2023-06-10T00:26:19;21.83;;;11.50;;
59418;SDS011;45224;50.904;6.038;2023-06-10T00:27:50;22.02;;;12.05;;
59418;SDS011;45224;50.904;6.038;2023-06-10T00:29:21;17.08;;;12.15;;
59418;SDS011;45224;50.904;6.038;2023-06-10T00:30:51;17.67;;;12.20;;
59418;SDS011;45224;50.904;6.038;2023-06-10T00:32:22;15.50;;;11.32;;
59418;SDS011;45224;50.904;6.038;2023-06-10T00:33:52;17.40;;;12.32;;
59418;SDS011;45224;50.904;6.038;2023-06-10T00:35:23;16.20;;;11.60;;
59418;SDS011;45224;50.904;6.038;2023-06-10T00:36:53;18.42;;;12.40;;
59418;SDS011;45224;50.904;6.038;2023-06-10T00:38:24;20.02;;;11.80;;
59418;SDS011;45224;50.904;6.038;2023-06-10T00:39:55;21.50;;;11.48;;
59418;SDS011;45224;50.904;6.038;2023-06-10T00:41:25;15.75;;;11.50;;
59418;SDS011;45224;50.904;6.038;2023-06-10T00:42:56;18.42;;;12.60;;
59418;SDS011;45224;50.904;6.038;2023-06-10T00:44:27;14.80;;;11.32;;
59418;SDS011;45224;50.904;6.038;2023-06-10T00:45:57;19.27;;;11.50;;
59418;SDS011;45224;50.904;6.038;2023-06-10T00:47:28;20.10;;;11.98;;
59418;SDS011;45224;50.904;6.038;2023-06-10T00:50:30;15.63;;;10.93;;
59418;SDS011;45224;50.904;6.038;2023-06-10T00:53:33;18.55;;;11.68;;
59418;SDS011;45224;50.904;6.038;2023-06-10T00:55:04;12.98;;;10.85;;
59418;SDS011;45224;50.904;6.038;2023-06-10T00:56:35;15.98;;;11.80;;
59418;SDS011;45224;50.904;6.038;2023-06-10T00:58:06;19.42;;;11.45;;
59418;SDS011;45224;50.904;6.038;2023-06-10T00:59:38;16.83;;;12.25;;
59418;SDS011;45224;50.904;6.038;2023-06-10T01:01:09;18.58;;;12.07;;
59418;SDS011;45224;50.904;6.038;2023-06-10T01:02:41;14.60;;;11.20;;
59418;SDS011;45224;50.904;6.038;2023-06-10T01:04:12;19.65;;;11.73;;
59418;SDS011;45224;50.904;6.038;2023-06-10T01:05:43;21.92;;;11.60;;
59418;SDS011;45224;50.904;6.038;2023-06-10T01:07:21;19.15;;;11.48;;
59418;SDS011;45224;50.904;6.038;2023-06-10T01:09:02;15.43;;;11.75;;
59418;SDS011;45224;50.904;6.038;2023-06-10T01:10:51;15.98;;;11.20;;
59418;SDS011;45224;50.904;6.038;2023-06-10T01:14:04;15.82;;;10.98;;
59418;SDS011;45224;50.904;6.038;2023-06-10T01:15:38;16.10;;;11.35;;
59418;SDS011;45224;50.904;6.038;2023-06-10T01:17:09;17.48;;;11.25;;
59418;SDS011;45224;50.904;6.038;2023-06-10T01:18:40;15.77;;;11.13;;
59418;SDS011;45224;50.904;6.038;2023-06-10T01:20:12;15.80;;;10.88;;
59418;SDS011;45224;50.904;6.038;2023-06-10T01:21:42;22.70;;;11.83;;
59418;SDS011;45224;50.904;6.038;2023-06-10T01:23:18;21.23;;;11.35;;
59418;SDS011;45224;50.904;6.038;2023-06-10T01:24:49;16.10;;;11.63;;
59418;SDS011;45224;50.904;6.038;2023-06-10T01:26:22;18.77;;;12.20;;
59418;SDS011;45224;50.904;6.038;2023-06-10T01:28:06;19.27;;;11.60;;
59418;SDS011;45224;50.904;6.038;2023-06-10T01:29:41;19.50;;;11.77;;
59418;SDS011;45224;50.904;6.038;2023-06-10T01:31:18;15.25;;;11.55;;
59418;SDS011;45224;50.904;6.038;2023-06-10T01:33:10;22.23;;;13.60;;
59418;SDS011;45224;50.904;6.038;2023-06-10T01:34:42;21.90;;;12.20;;
59418;SDS011;45224;50.904;6.038;2023-06-10T01:36:15;17.92;;;12.00;;
59418;SDS011;45224;50.904;6.038;2023-06-10T01:37:47;19.67;;;12.80;;
59418;SDS011;45224;50.904;6.038;2023-06-10T01:39:20;19.13;;;12.25;;
59418;SDS011;45224;50.904;6.038;2023-06-10T01:40:54;21.13;;;11.80;;
59418;SDS011;45224;50.904;6.038;2023-06-10T01:42:26;17.67;;;12.18;;
59418;SDS011;45224;50.904;6.038;2023-06-10T01:43:58;17.20;;;11.85;;
59418;SDS011;45224;50.904;6.038;2023-06-10T01:45:29;23.23;;;12.60;;
59418;SDS011;45224;50.904;6.038;2023-06-10T01:46:59;18.08;;;12.40;;
59418;SDS011;45224;50.904;6.038;2023-06-10T01:48:31;16.83;;;11.90;;
59418;SDS011;45224;50.904;6.038;2023-06-10T01:51:33;19.47;;;11.27;;
59418;SDS011;45224;50.904;6.038;2023-06-10T01:53:04;16.63;;;12.05;;
59418;SDS011;45224;50.904;6.038;2023-06-10T01:54:37;15.35;;;11.68;;
59418;SDS011;45224;50.904;6.038;2023-06-10T01:56:09;19.45;;;11.80;;
59418;SDS011;45224;50.904;6.038;2023-06-10T01:57:39;17.67;;;12.30;;
59418;SDS011;45224;50.904;6.038;2023-06-10T01:59:10;19.10;;;12.00;;
59418;SDS011;45224;50.904;6.038;2023-06-10T02:00:41;18.70;;;12.50;;
59418;SDS011;45224;50.904;6.038;2023-06-10T02:02:13;17.88;;;12.30;;
59418;SDS011;45224;50.904;6.038;2023-06-10T02:03:43;20.25;;;13.70;;
59418;SDS011;45224;50.904;6.038;2023-06-10T02:05:13;18.08;;;12.55;;
59418;SDS011;45224;50.904;6.038;2023-06-10T02:06:46;17.70;;;13.02;;
59418;SDS011;45224;50.904;6.038;2023-06-10T02:08:16;19.83;;;12.93;;
59418;SDS011;45224;50.904;6.038;2023-06-10T02:09:47;17.77;;;12.07;;
59418;SDS011;45224;50.904;6.038;2023-06-10T02:11:17;18.30;;;12.63;;
59418;SDS011;45224;50.904;6.038;2023-06-10T02:12:48;16.55;;;12.82;;
59418;SDS011;45224;50.904;6.038;2023-06-10T02:14:18;19.85;;;12.88;;
59418;SDS011;45224;50.904;6.038;2023-06-10T02:15:49;18.88;;;13.38;;
59418;SDS011;45224;50.904;6.038;2023-06-10T02:17:20;17.70;;;12.82;;
59418;SDS011;45224;50.904;6.038;2023-06-10T02:18:51;19.60;;;12.97;;
59418;SDS011;45224;50.904;6.038;2023-06-10T02:20:22;18.33;;;12.95;;
59418;SDS011;45224;50.904;6.038;2023-06-10T02:21:52;18.57;;;13.07;;
59418;SDS011;45224;50.904;6.038;2023-06-10T02:23:23;15.52;;;12.00;;
59418;SDS011;45224;50.904;6.038;2023-06-10T02:24:54;14.60;;;11.45;;
59418;SDS011;45224;50.904;6.038;2023-06-10T02:26:25;17.45;;;12.60;;
59418;SDS011;45224;50.904;6.038;2023-06-10T02:27:56;18.40;;;12.63;;
59418;SDS011;45224;50.904;6.038;2023-06-10T02:29:27;19.00;;;13.13;;
59418;SDS011;45224;50.904;6.038;2023-06-10T02:30:58;19.17;;;12.77;;
59418;SDS011;45224;50.904;6.038;2023-06-10T02:32:30;17.65;;;12.57;;
59418;SDS011;45224;50.904;6.038;2023-06-10T02:34:01;21.15;;;13.63;;
59418;SDS011;45224;50.904;6.038;2023-06-10T02:35:33;16.95;;;13.05;;
59418;SDS011;45224;50.904;6.038;2023-06-10T02:37:04;19.05;;;12.93;;
59418;SDS011;45224;50.904;6.038;2023-06-10T02:38:35;16.00;;;12.40;;
59418;SDS011;45224;50.904;6.038;2023-06-10T02:40:05;17.75;;;13.30;;
59418;SDS011;45224;50.904;6.038;2023-06-10T02:41:37;19.92;;;12.93;;
59418;SDS011;45224;50.904;6.038;2023-06-10T02:43:08;18.70;;;12.90;;
59418;SDS011;45224;50.904;6.038;2023-06-10T02:44:39;17.60;;;13.15;;
59418;SDS011;45224;50.904;6.038;2023-06-10T02:46:13;18.08;;;12.40;;
59418;SDS011;45224;50.904;6.038;2023-06-10T02:47:44;16.05;;;12.30;;
59418;SDS011;45224;50.904;6.038;2023-06-10T02:49:16;20.95;;;13.45;;
59418;SDS011;45224;50.904;6.038;2023-06-10T02:50:48;20.90;;;12.50;;
59418;SDS011;45224;50.904;6.038;2023-06-10T02:52:24;24.02;;;13.00;;
59418;SDS011;45224;50.904;6.038;2023-06-10T02:53:55;18.58;;;12.77;;
59418;SDS011;45224;50.904;6.038;2023-06-10T02:55:26;17.83;;;13.77;;
59418;SDS011;45224;50.904;6.038;2023-06-10T02:57:00;18.80;;;13.45;;
59418;SDS011;45224;50.904;6.038;2023-06-10T02:58:32;22.92;;;13.35;;
59418;SDS011;45224;50.904;6.038;2023-06-10T03:00:03;18.85;;;13.18;;
59418;SDS011;45224;50.904;6.038;2023-06-10T03:01:42;18.25;;;12.85;;
59418;SDS011;45224;50.904;6.038;2023-06-10T03:03:14;16.15;;;12.65;;
59418;SDS011;45224;50.904;6.038;2023-06-10T03:04:57;20.13;;;13.00;;
59418;SDS011;45224;50.904;6.038;2023-06-10T03:08:09;17.30;;;12.13;;
59418;SDS011;45224;50.904;6.038;2023-06-10T03:09:42;19.33;;;12.73;;
59418;SDS011;45224;50.904;6.038;2023-06-10T03:11:15;21.63;;;12.70;;
59418;SDS011;45224;50.904;6.038;2023-06-10T03:12:46;17.25;;;13.15;;
59418;SDS011;45224;50.904;6.038;2023-06-10T03:14:17;20.55;;;13.25;;
59418;SDS011;45224;50.904;6.038;2023-06-10T03:15:48;21.08;;;13.73;;
59418;SDS011;45224;50.904;6.038;2023-06-10T03:17:21;17.42;;;12.70;;
59418;SDS011;45224;50.904;6.038;2023-06-10T03:18:52;21.37;;;12.93;;
59418;SDS011;45224;50.904;6.038;2023-06-10T03:20:23;15.18;;;12.32;;
59418;SDS011;45224;50.904;6.038;2023-06-10T03:22:06;19.15;;;12.75;;
59418;SDS011;45224;50.904;6.038;2023-06-10T03:23:47;16.23;;;12.73;;
59418;SDS011;45224;50.904;6.038;2023-06-10T03:25:18;17.55;;;12.48;;
59418;SDS011;45224;50.904;6.038;2023-06-10T03:26:53;21.80;;;12.57;;
59418;SDS011;45224;50.904;6.038;2023-06-10T03:28:24;18.87;;;13.20;;
59418;SDS011;45224;50.904;6.038;2023-06-10T03:31:26;18.13;;;12.45;;
59418;SDS011;45224;50.904;6.038;2023-06-10T03:32:58;18.52;;;12.65;;
59418;SDS011;45224;50.904;6.038;2023-06-10T03:34:30;16.55;;;12.95;;
59418;SDS011;45224;50.904;6.038;2023-06-10T03:36:01;17.73;;;12.93;;
59418;SDS011;45224;50.904;6.038;2023-06-10T03:37:32;16.45;;;13.25;;
59418;SDS011;45224;50.904;6.038;2023-06-10T03:39:03;18.77;;;13.15;;
59418;SDS011;45224;50.904;6.038;2023-06-10T03:40:33;19.75;;;12.77;;
59418;SDS011;45224;50.904;6.038;2023-06-10T03:42:04;15.90;;;12.93;;
59418;SDS011;45224;50.904;6.038;2023-06-10T03:43:37;16.88;;;12.38;;
59418;SDS011;45224;50.904;6.038;2023-06-10T03:45:09;19.85;;;13.30;;
59418;SDS011;45224;50.904;6.038;2023-06-10T03:46:40;22.10;;;13.05;;
59418;SDS011;45224;50.904;6.038;2023-06-10T03:48:11;17.65;;;13.13;;
59418;SDS011;45224;50.904;6.038;2023-06-10T03:49:51;17.73;;;12.13;;
59418;SDS011;45224;50.904;6.038;2023-06-10T03:51:23;18.90;;;13.43;;
59418;SDS011;45224;50.904;6.038;2023-06-10T03:52:54;16.40;;;13.05;;
59418;SDS011;45224;50.904;6.038;2023-06-10T03:54:28;17.67;;;12.75;;
59418;SDS011;45224;50.904;6.038;2023-06-10T03:55:59;23.60;;;12.73;;
59418;SDS011;45224;50.904;6.038;2023-06-10T03:57:30;21.05;;;12.57;;
59418;SDS011;45224;50.904;6.038;2023-06-10T03:59:01;18.87;;;12.63;;
59418;SDS011;45224;50.904;6.038;2023-06-10T04:00:31;20.00;;;13.35;;
59418;SDS011;45224;50.904;6.038;2023-06-10T04:02:11;24.45;;;12.82;;
59418;SDS011;45224;50.904;6.038;2023-06-10T04:03:41;20.98;;;12.60;;
59418;SDS011;45224;50.904;6.038;2023-06-10T04:05:17;16.70;;;13.30;;
59418;SDS011;45224;50.904;6.038;2023-06-10T04:06:48;15.55;;;11.98;;
59418;SDS011;45224;50.904;6.038;2023-06-10T04:08:19;19.33;;;12.65;;
59418;SDS011;45224;50.904;6.038;2023-06-10T04:09:50;22.83;;;12.57;;
59418;SDS011;45224;50.904;6.038;2023-06-10T04:11:21;18.02;;;12.73;;
59418;SDS011;45224;50.904;6.038;2023-06-10T04:12:52;22.40;;;12.80;;
59418;SDS011;45224;50.904;6.038;2023-06-10T04:14:23;21.27;;;12.98;;
59418;SDS011;45224;50.904;6.038;2023-06-10T04:15:53;25.40;;;12.90;;
59418;SDS011;45224;50.904;6.038;2023-06-10T04:17:27;19.83;;;13.00;;
59418;SDS011;45224;50.904;6.038;2023-06-10T04:18:58;21.15;;;13.43;;
59418;SDS011;45224;50.904;6.038;2023-06-10T04:20:29;16.85;;;12.32;;
59418;SDS011;45224;50.904;6.038;2023-06-10T04:22:02;19.27;;;12.57;;
59418;SDS011;45224;50.904;6.038;2023-06-10T04:23:35;22.13;;;13.43;;
59418;SDS011;45224;50.904;6.038;2023-06-10T04:25:08;19.35;;;13.73;;
59418;SDS011;45224;50.904;6.038;2023-06-10T04:26:39;29.35;;;14.23;;
59418;SDS011;45224;50.904;6.038;2023-06-10T04:28:10;19.52;;;13.05;;
59418;SDS011;45224;50.904;6.038;2023-06-10T04:29:41;18.10;;;13.38;;
59418;SDS011;45224;50.904;6.038;2023-06-10T04:31:11;19.95;;;13.57;;
59418;SDS011;45224;50.904;6.038;2023-06-10T04:32:42;21.00;;;13.13;;
59418;SDS011;45224;50.904;6.038;2023-06-10T04:34:18;17.92;;;13.32;;
59418;SDS011;45224;50.904;6.038;2023-06-10T04:35:49;23.73;;;14.00;;
59418;SDS011;45224;50.904;6.038;2023-06-10T04:37:23;19.42;;;13.88;;
59418;SDS011;45224;50.904;6.038;2023-06-10T04:38:54;19.83;;;13.68;;
59418;SDS011;45224;50.904;6.038;2023-06-10T04:40:25;21.45;;;14.05;;
59418;SDS011;45224;50.904;6.038;2023-06-10T04:41:57;24.77;;;13.52;;
59418;SDS011;45224;50.904;6.038;2023-06-10T04:43:27;24.60;;;14.43;;
59418;SDS011;45224;50.904;6.038;2023-06-10T04:45:03;23.42;;;13.90;;
59418;SDS011;45224;50.904;6.038;2023-06-10T04:48:05;17.27;;;12.77;;
59418;SDS011;45224;50.904;6.038;2023-06-10T04:49:35;19.30;;;13.35;;
59418;SDS011;45224;50.904;6.038;2023-06-10T04:51:06;19.77;;;13.02;;
59418;SDS011;45224;50.904;6.038;2023-06-10T04:52:37;21.70;;;13.70;;
59418;SDS011;45224;50.904;6.038;2023-06-10T04:55:38;25.37;;;13.80;;
59418;SDS011;45224;50.904;6.038;2023-06-10T04:57:09;22.50;;;13.63;;
59418;SDS011;45224;50.904;6.038;2023-06-10T04:58:41;22.42;;;14.60;;
59418;SDS011;45224;50.904;6.038;2023-06-10T05:00:12;26.38;;;13.45;;
59418;SDS011;45224;50.904;6.038;2023-06-10T05:01:43;24.08;;;14.45;;
59418;SDS011;45224;50.904;6.038;2023-06-10T05:03:14;30.17;;;15.17;;
59418;SDS011;45224;50.904;6.038;2023-06-10T05:04:45;25.33;;;14.57;;
59418;SDS011;45224;50.904;6.038;2023-06-10T05:06:15;28.95;;;15.82;;
59418;SDS011;45224;50.904;6.038;2023-06-10T05:07:46;29.20;;;14.07;;
59418;SDS011;45224;50.904;6.038;2023-06-10T05:09:16;20.38;;;14.02;;
59418;SDS011;45224;50.904;6.038;2023-06-10T05:10:47;24.93;;;14.20;;
59418;SDS011;45224;50.904;6.038;2023-06-10T05:12:17;22.33;;;14.48;;
59418;SDS011;45224;50.904;6.038;2023-06-10T05:13:48;26.23;;;14.85;;
59418;SDS011;45224;50.904;6.038;2023-06-10T05:15:19;24.95;;;16.08;;
59418;SDS011;45224;50.904;6.038;2023-06-10T05:16:49;22.17;;;14.93;;
59418;SDS011;45224;50.904;6.038;2023-06-10T05:18:19;27.93;;;15.83;;
59418;SDS011;45224;50.904;6.038;2023-06-10T05:19:50;22.67;;;15.23;;
59418;SDS011;45224;50.904;6.038;2023-06-10T05:21:21;22.17;;;15.25;;
59418;SDS011;45224;50.904;6.038;2023-06-10T05:22:51;26.77;;;15.57;;
59418;SDS011;45224;50.904;6.038;2023-06-10T05:24:22;22.80;;;15.27;;
59418;SDS011;45224;50.904;6.038;2023-06-10T05:25:53;29.27;;;16.50;;
59418;SDS011;45224;50.904;6.038;2023-06-10T05:27:24;22.17;;;15.43;;
59418;SDS011;45224;50.904;6.038;2023-06-10T05:28:55;23.52;;;14.43;;
59418;SDS011;45224;50.904;6.038;2023-06-10T05:30:26;26.08;;;15.30;;
59418;SDS011;45224;50.904;6.038;2023-06-10T05:31:57;19.98;;;15.10;;
59418;SDS011;45224;50.904;6.038;2023-06-10T05:33:30;19.02;;;14.65;;
59418;SDS011;45224;50.904;6.038;2023-06-10T05:35:00;21.63;;;15.38;;
59418;SDS011;45224;50.904;6.038;2023-06-10T05:36:31;22.73;;;14.98;;
59418;SDS011;45224;50.904;6.038;2023-06-10T05:38:02;20.20;;;14.48;;
59418;SDS011;45224;50.904;6.038;2023-06-10T05:39:34;26.13;;;14.98;;
59418;SDS011;45224;50.904;6.038;2023-06-10T05:41:07;20.77;;;15.07;;
59418;SDS011;45224;50.904;6.038;2023-06-10T05:42:38;29.88;;;15.32;;
59418;SDS011;45224;50.904;6.038;2023-06-10T05:44:08;20.20;;;14.73;;
59418;SDS011;45224;50.904;6.038;2023-06-10T05:45:39;23.05;;;14.88;;
59418;SDS011;45224;50.904;6.038;2023-06-10T05:48:40;20.23;;;15.07;;
59418;SDS011;45224;50.904;6.038;2023-06-10T05:50:11;22.60;;;15.13;;
59418;SDS011;45224;50.904;6.038;2023-06-10T05:51:41;20.83;;;14.20;;
59418;SDS011;45224;50.904;6.038;2023-06-10T05:53:12;30.17;;;17.97;;
59418;SDS011;45224;50.904;6.038;2023-06-10T05:54:45;25.02;;;16.25;;
59418;SDS011;45224;50.904;6.038;2023-06-10T05:56:15;26.52;;;16.27;;
59418;SDS011;45224;50.904;6.038;2023-06-10T05:57:46;22.55;;;15.60;;
59418;SDS011;45224;50.904;6.038;2023-06-10T05:59:16;23.15;;;14.75;;
59418;SDS011;45224;50.904;6.038;2023-06-10T06:00:47;18.25;;;14.73;;
59418;SDS011;45224;50.904;6.038;2023-06-10T06:02:17;22.13;;;14.75;;
59418;SDS011;45224;50.904;6.038;2023-06-10T06:03:48;21.75;;;14.35;;
59418;SDS011;45224;50.904;6.038;2023-06-10T06:05:18;22.20;;;14.60;;
59418;SDS011;45224;50.904;6.038;2023-06-10T06:06:49;18.35;;;14.02;;
59418;SDS011;45224;50.904;6.038;2023-06-10T06:08:19;24.55;;;16.95;;
59418;SDS011;45224;50.904;6.038;2023-06-10T06:09:50;26.63;;;14.38;;
59418;SDS011;45224;50.904;6.038;2023-06-10T06:11:20;20.00;;;13.25;;
59418;SDS011;45224;50.904;6.038;2023-06-10T06:12:51;20.77;;;13.88;;
59418;SDS011;45224;50.904;6.038;2023-06-10T06:14:21;22.00;;;13.15;;
59418;SDS011;45224;50.904;6.038;2023-06-10T06:15:52;22.23;;;13.93;;
59418;SDS011;45224;50.904;6.038;2023-06-10T06:17:22;18.35;;;12.77;;
59418;SDS011;45224;50.904;6.038;2023-06-10T06:18:53;21.85;;;13.50;;
59418;SDS011;45224;50.904;6.038;2023-06-10T06:20:23;15.93;;;12.73;;
59418;SDS011;45224;50.904;6.038;2023-06-10T06:21:54;19.02;;;12.93;;
59418;SDS011;45224;50.904;6.038;2023-06-10T06:23:25;20.98;;;12.93;;
59418;SDS011;45224;50.904;6.038;2023-06-10T06:24:55;19.88;;;12.45;;
59418;SDS011;45224;50.904;6.038;2023-06-10T06:26:26;15.40;;;11.80;;
59418;SDS011;45224;50.904;6.038;2023-06-10T06:27:57;19.23;;;12.45;;
59418;SDS011;45224;50.904;6.038;2023-06-10T06:29:27;18.30;;;12.13;;
59418;SDS011;45224;50.904;6.038;2023-06-10T06:31:00;17.02;;;12.40;;
59418;SDS011;45224;50.904;6.038;2023-06-10T06:32:30;21.92;;;13.07;;
59418;SDS011;45224;50.904;6.038;2023-06-10T06:34:02;17.30;;;12.55;;
59418;SDS011;45224;50.904;6.038;2023-06-10T06:35:32;19.73;;;13.02;;
59418;SDS011;45224;50.904;6.038;2023-06-10T06:37:04;22.50;;;12.88;;
59418;SDS011;45224;50.904;6.038;2023-06-10T06:38:37;19.73;;;12.18;;
59418;SDS011;45224;50.904;6.038;2023-06-10T06:40:08;20.33;;;12.82;;
59418;SDS011;45224;50.904;6.038;2023-06-10T06:41:39;15.80;;;11.43;;
59418;SDS011;45224;50.904;6.038;2023-06-10T06:43:09;16.48;;;11.35;;
59418;SDS011;45224;50.904;6.038;2023-06-10T06:45:00;23.17;;;11.95;;
59418;SDS011;45224;50.904;6.038;2023-06-10T06:46:31;19.65;;;11.68;;
59418;SDS011;45224;50.904;6.038;2023-06-10T06:48:01;17.17;;;11.05;;
59418;SDS011;45224;50.904;6.038;2023-06-10T06:49:32;14.95;;;10.80;;
59418;SDS011;45224;50.904;6.038;2023-06-10T06:51:03;17.00;;;11.10;;
59418;SDS011;45224;50.904;6.038;2023-06-10T06:52:33;14.57;;;11.25;;
59418;SDS011;45224;50.904;6.038;2023-06-10T06:54:04;14.05;;;11.02;;
59418;SDS011;45224;50.904;6.038;2023-06-10T06:55:35;17.08;;;11.32;;
59418;SDS011;45224;50.904;6.038;2023-06-10T06:57:06;19.50;;;11.68;;
59418;SDS011;45224;50.904;6.038;2023-06-10T07:00:07;13.07;;;9.90;;
59418;SDS011;45224;50.904;6.038;2023-06-10T07:01:39;14.90;;;10.52;;
59418;SDS011;45224;50.904;6.038;2023-06-10T07:03:09;14.80;;;10.48;;
59418;SDS011;45224;50.904;6.038;2023-06-10T07:04:40;14.70;;;10.30;;
59418;SDS011;45224;50.904;6.038;2023-06-10T07:06:12;15.00;;;10.18;;
59418;SDS011;45224;50.904;6.038;2023-06-10T07:07:43;13.73;;;9.88;;
59418;SDS011;45224;50.904;6.038;2023-06-10T07:09:13;13.80;;;10.10;;
59418;SDS011;45224;50.904;6.038;2023-06-10T07:10:44;15.38;;;10.35;;
59418;SDS011;45224;50.904;6.038;2023-06-10T07:12:14;33.15;;;11.75;;
59418;SDS011;45224;50.904;6.038;2023-06-10T07:13:45;18.50;;;10.65;;
59418;SDS011;45224;50.904;6.038;2023-06-10T07:15:15;15.27;;;9.90;;
59418;SDS011;45224;50.904;6.038;2023-06-10T07:16:46;14.68;;;9.95;;
59418;SDS011;45224;50.904;6.038;2023-06-10T07:18:18;18.35;;;10.00;;
59418;SDS011;45224;50.904;6.038;2023-06-10T07:19:49;13.05;;;9.15;;
59418;SDS011;45224;50.904;6.038;2023-06-10T07:21:21;15.00;;;9.80;;
59418;SDS011;45224;50.904;6.038;2023-06-10T07:22:53;18.08;;;9.88;;
59418;SDS011;45224;50.904;6.038;2023-06-10T07:24:24;21.08;;;9.82;;
59418;SDS011;45224;50.904;6.038;2023-06-10T07:25:54;15.68;;;9.10;;
59418;SDS011;45224;50.904;6.038;2023-06-10T07:27:25;15.30;;;9.93;;
59418;SDS011;45224;50.904;6.038;2023-06-10T07:28:55;15.15;;;9.52;;
59418;SDS011;45224;50.904;6.038;2023-06-10T07:30:26;15.70;;;9.73;;
59418;SDS011;45224;50.904;6.038;2023-06-10T07:31:56;14.52;;;9.23;;
59418;SDS011;45224;50.904;6.038;2023-06-10T07:33:27;21.05;;;9.65;;
59418;SDS011;45224;50.904;6.038;2023-06-10T07:34:57;14.02;;;9.18;;
59418;SDS011;45224;50.904;6.038;2023-06-10T07:36:27;15.40;;;9.23;;
59418;SDS011;45224;50.904;6.038;2023-06-10T07:37:59;15.88;;;9.73;;
59418;SDS011;45224;50.904;6.038;2023-06-10T07:39:30;12.35;;;8.57;;
59418;SDS011;45224;50.904;6.038;2023-06-10T07:41:00;13.93;;;9.70;;
59418;SDS011;45224;50.904;6.038;2023-06-10T07:42:34;15.35;;;8.98;;
59418;SDS011;45224;50.904;6.038;2023-06-10T07:44:06;14.52;;;9.18;;
59418;SDS011;45224;50.904;6.038;2023-06-10T07:47:07;14.33;;;8.30;;
59418;SDS011;45224;50.904;6.038;2023-06-10T07:48:37;17.42;;;8.85;;
59418;SDS011;45224;50.904;6.038;2023-06-10T07:50:08;13.90;;;8.60;;
59418;SDS011;45224;50.904;6.038;2023-06-10T07:51:39;17.10;;;8.80;;
59418;SDS011;45224;50.904;6.038;2023-06-10T07:54:40;13.10;;;9.00;;
59418;SDS011;45224;50.904;6.038;2023-06-10T07:57:41;14.40;;;8.32;;
59418;SDS011;45224;50.904;6.038;2023-06-10T08:00:43;12.15;;;7.63;;
59418;SDS011;45224;50.904;6.038;2023-06-10T08:02:13;13.20;;;7.95;;
59418;SDS011;45224;50.904;6.038;2023-06-10T08:05:14;10.15;;;7.47;;
59418;SDS011;45224;50.904;6.038;2023-06-10T08:08:15;18.93;;;8.20;;
59418;SDS011;45224;50.904;6.038;2023-06-10T08:11:16;12.60;;;7.70;;
59418;SDS011;45224;50.904;6.038;2023-06-10T08:14:17;13.60;;;7.73;;
59418;SDS011;45224;50.904;6.038;2023-06-10T08:17:20;13.40;;;7.70;;
59418;SDS011;45224;50.904;6.038;2023-06-10T08:18:51;18.80;;;9.93;;
59418;SDS011;45224;50.904;6.038;2023-06-10T08:20:23;16.90;;;8.25;;
59418;SDS011;45224;50.904;6.038;2023-06-10T08:21:53;15.07;;;9.05;;
59418;SDS011;45224;50.904;6.038;2023-06-10T08:24:54;14.07;;;7.57;;
59418;SDS011;45224;50.904;6.038;2023-06-10T08:26:26;13.50;;;7.70;;
59418;SDS011;45224;50.904;6.038;2023-06-10T08:27:56;12.32;;;7.80;;
59418;SDS011;45224;50.904;6.038;2023-06-10T08:29:27;10.85;;;7.03;;
59418;SDS011;45224;50.904;6.038;2023-06-10T08:30:59;9.18;;;7.22;;
59418;SDS011;45224;50.904;6.038;2023-06-10T08:32:29;10.13;;;6.93;;
59418;SDS011;45224;50.904;6.038;2023-06-10T08:34:00;13.77;;;7.30;;
59418;SDS011;45224;50.904;6.038;2023-06-10T08:35:30;14.20;;;6.78;;
59418;SDS011;45224;50.904;6.038;2023-06-10T08:37:01;14.75;;;6.75;;
59418;SDS011;45224;50.904;6.038;2023-06-10T08:38:32;12.80;;;6.65;;
59418;SDS011;45224;50.904;6.038;2023-06-10T08:40:04;11.63;;;6.20;;
59418;SDS011;45224;50.904;6.038;2023-06-10T08:41:36;10.48;;;6.95;;
59418;SDS011;45224;50.904;6.038;2023-06-10T08:43:22;13.85;;;6.95;;
59418;SDS011;45224;50.904;6.038;2023-06-10T08:45:10;10.32;;;6.85;;
59418;SDS011;45224;50.904;6.038;2023-06-10T08:46:47;8.65;;;6.35;;
59418;SDS011;45224;50.904;6.038;2023-06-10T08:48:18;12.93;;;7.03;;
59418;SDS011;45224;50.904;6.038;2023-06-10T08:49:49;11.65;;;6.70;;
59418;SDS011;45224;50.904;6.038;2023-06-10T08:51:20;8.70;;;6.47;;
59418;SDS011;45224;50.904;6.038;2023-06-10T08:52:55;11.95;;;6.68;;
59418;SDS011;45224;50.904;6.038;2023-06-10T08:54:32;11.57;;;6.57;;
59418;SDS011;45224;50.904;6.038;2023-06-10T08:56:06;8.07;;;6.25;;
59418;SDS011;45224;50.904;6.038;2023-06-10T08:57:37;10.93;;;6.82;;
59418;SDS011;45224;50.904;6.038;2023-06-10T08:59:07;10.65;;;6.65;;
59418;SDS011;45224;50.904;6.038;2023-06-10T09:00:39;8.48;;;6.57;;
59418;SDS011;45224;50.904;6.038;2023-06-10T09:02:09;11.40;;;6.60;;
59418;SDS011;45224;50.904;6.038;2023-06-10T09:03:40;11.35;;;6.32;;
59418;SDS011;45224;50.904;6.038;2023-06-10T09:05:12;9.25;;;6.03;;
59418;SDS011;45224;50.904;6.038;2023-06-10T09:06:43;12.30;;;6.88;;
59418;SDS011;45224;50.904;6.038;2023-06-10T09:08:14;13.20;;;7.05;;
59418;SDS011;45224;50.904;6.038;2023-06-10T09:09:45;11.35;;;6.50;;
59418;SDS011;45224;50.904;6.038;2023-06-10T09:11:16;12.30;;;6.90;;
59418;SDS011;45224;50.904;6.038;2023-06-10T09:12:47;8.10;;;6.63;;
59418;SDS011;45224;50.904;6.038;2023-06-10T09:14:17;11.05;;;6.95;;
59418;SDS011;45224;50.904;6.038;2023-06-10T09:15:48;9.13;;;6.32;;
59418;SDS011;45224;50.904;6.038;2023-06-10T09:17:19;13.68;;;7.05;;
59418;SDS011;45224;50.904;6.038;2023-06-10T09:18:49;9.00;;;6.13;;
59418;SDS011;45224;50.904;6.038;2023-06-10T09:20:24;11.38;;;6.63;;
59418;SDS011;45224;50.904;6.038;2023-06-10T09:21:55;9.00;;;5.97;;
59418;SDS011;45224;50.904;6.038;2023-06-10T09:23:26;8.70;;;6.18;;
59418;SDS011;45224;50.904;6.038;2023-06-10T09:25:07;11.10;;;6.22;;
59418;SDS011;45224;50.904;6.038;2023-06-10T09:26:41;11.02;;;6.63;;
59418;SDS011;45224;50.904;6.038;2023-06-10T09:28:13;9.35;;;6.00;;
59418;SDS011;45224;50.904;6.038;2023-06-10T09:29:54;11.77;;;6.78;;
59418;SDS011;45224;50.904;6.038;2023-06-10T09:31:25;10.00;;;6.63;;